Time,TemperatureF,DewpointF,PressureIn,WindDirection,WindDirectionDegrees,WindSpeedMPH,WindSpeedGustMPH,Humidity,HourlyPrecipIn,Conditions,Clouds,dailyrainin,SoftwareType,DateUTC
2013-06-24 00:02:00,59.0,40.0,29.78,North,11,24.0,38.0,50,0.00,,,0.00,,2013-06-24 07:02:00,
2013-06-24 00:11:00,59.0,40.0,29.78,North,11,24.0,38.0,50,0.00,,,0.00,,2013-06-24 07:11:00,
2013-06-24 00:24:00,59.0,37.0,29.78,North,360,23.0,37.0,44,0.00,,,0.00,,2013-06-24 07:24:00,
2013-06-24 00:34:00,58.0,41.0,29.79,NNE,19,22.0,35.0,54,0.00,,,0.00,,2013-06-24 07:34:00,
2013-06-24 00:44:00,58.0,41.0,29.79,NNE,19,22.0,35.0,54,0.00,,,0.00,,2013-06-24 07:44:00,
2013-06-24 00:55:00,58.0,41.0,29.79,NNE,19,22.0,35.0,54,0.00,,,0.00,,2013-06-24 07:55:00,
2013-06-24 01:01:00,57.0,40.0,29.79,NNE,14,18.0,34.0,52,0.00,,,0.00,,2013-06-24 08:01:00,
2013-06-24 01:12:00,57.0,41.0,29.80,NW,314,22.0,32.0,55,0.00,,,0.00,,2013-06-24 08:12:00,
2013-06-24 01:33:00,56.0,42.0,29.79,North,355,20.0,32.0,59,0.00,,,0.00,,2013-06-24 08:33:00,
2013-06-24 01:43:00,56.0,41.0,29.78,North,360,23.0,34.0,58,0.00,,,0.00,,2013-06-24 08:43:00,
2013-06-24 01:52:00,56.0,41.0,29.78,North,11,25.0,34.0,56,0.00,,,0.00,,2013-06-24 08:52:00,
2013-06-24 02:01:00,56.0,39.0,29.78,North,11,20.0,34.0,53,0.00,,,0.00,,2013-06-24 09:01:00,
2013-06-24 02:12:00,56.0,38.0,29.78,North,355,21.0,31.0,50,0.00,,,0.00,,2013-06-24 09:12:00,
2013-06-24 02:22:00,56.0,38.0,29.78,NNE,24,22.0,38.0,51,0.00,,,0.00,,2013-06-24 09:22:00,
2013-06-24 02:33:00,55.0,39.0,29.77,NNW,345,19.0,29.0,55,0.00,,,0.00,,2013-06-24 09:33:00,
2013-06-24 02:43:00,55.0,40.0,29.78,North,355,18.0,28.0,56,0.00,,,0.00,,2013-06-24 09:43:00,
2013-06-24 02:53:00,55.0,40.0,29.78,NNW,348,19.0,28.0,56,0.00,,,0.00,,2013-06-24 09:53:00,
2013-06-24 03:02:00,55.0,41.0,29.78,North,355,21.0,29.0,58,0.00,,,0.00,,2013-06-24 10:02:00,
2013-06-24 03:11:00,55.0,41.0,29.78,NNW,341,19.0,35.0,60,0.00,,,0.00,,2013-06-24 10:11:00,
2013-06-24 03:22:00,55.0,41.0,29.78,North,355,20.0,30.0,59,0.00,,,0.00,,2013-06-24 10:22:00,
2013-06-24 03:53:00,55.0,42.0,29.79,North,360,18.0,32.0,62,0.00,,,0.00,,2013-06-24 10:53:00,
2013-06-24 04:01:00,55.0,45.0,29.78,NW,309,16.0,30.0,68,0.00,,,0.00,,2013-06-24 11:01:00,
2013-06-24 04:52:00,54.0,44.0,29.79,North,5,17.0,28.0,69,0.00,,,0.00,,2013-06-24 11:52:00,
2013-06-24 05:11:00,54.0,44.0,29.79,NNW,331,19.0,31.0,68,0.00,,,0.00,,2013-06-24 12:11:00,
2013-06-24 05:22:00,54.0,44.0,29.79,NNE,17,17.0,29.0,68,0.00,,,0.00,,2013-06-24 12:22:00,
2013-06-24 05:44:00,55.0,44.0,29.79,North,355,18.0,32.0,67,0.00,,,0.00,,2013-06-24 12:44:00,
2013-06-24 05:52:00,54.0,44.0,29.80,North,355,15.0,23.0,69,0.00,,,0.00,,2013-06-24 12:52:00,
2013-06-24 06:11:00,54.0,44.0,29.80,North,355,15.0,23.0,69,0.00,,,0.00,,2013-06-24 13:11:00,
2013-06-24 06:46:00,55.0,46.0,29.81,NE,49,12.0,23.0,71,0.00,,,0.00,,2013-06-24 13:46:00,
2013-06-24 06:57:00,55.0,46.0,29.81,NE,49,12.0,23.0,71,0.00,,,0.00,,2013-06-24 13:57:00,
2013-06-24 07:43:00,55.0,46.0,29.83,NNW,342,9.0,18.0,71,0.00,,,0.00,,2013-06-24 14:43:00,
2013-06-24 07:52:00,56.0,46.0,29.83,NW,317,8.0,16.0,70,0.00,,,0.00,,2013-06-24 14:52:00,
2013-06-24 08:11:00,56.0,45.0,29.84,North,5,10.0,21.0,67,0.00,,,0.00,,2013-06-24 15:11:00,
2013-06-24 08:23:00,56.0,45.0,29.83,North,350,12.0,26.0,67,0.00,,,0.00,,2013-06-24 15:23:00,
2013-06-24 08:34:00,58.0,45.0,29.85,North,355,8.0,19.0,63,0.00,,,0.00,,2013-06-24 15:34:00,
2013-06-24 08:43:00,58.0,45.0,29.85,North,360,6.0,19.0,62,0.00,,,0.00,,2013-06-24 15:43:00,
2013-06-24 08:52:00,58.0,45.0,29.85,North,11,10.0,22.0,62,0.00,,,0.00,,2013-06-24 15:52:00,
2013-06-24 09:02:00,59.0,46.0,29.85,North,355,9.0,25.0,63,0.00,,,0.00,,2013-06-24 16:02:00,
2013-06-24 09:33:00,59.0,46.0,29.86,NNW,331,6.0,21.0,63,0.00,,,0.00,,2013-06-24 16:33:00,
2013-06-24 09:53:00,59.0,46.0,29.86,North,360,11.0,19.0,63,0.00,,,0.00,,2013-06-24 16:53:00,
2013-06-24 10:01:00,59.0,47.0,29.86,NW,319,5.0,28.0,65,0.00,,,0.00,,2013-06-24 17:01:00,
2013-06-24 10:11:00,59.0,47.0,29.86,NW,319,5.0,28.0,65,0.00,,,0.00,,2013-06-24 17:11:00,
2013-06-24 10:22:00,59.0,47.0,29.86,North,360,7.0,26.0,64,0.00,,,0.00,,2013-06-24 17:22:00,
2013-06-24 10:34:00,59.0,47.0,29.86,North,360,7.0,26.0,64,0.00,,,0.00,,2013-06-24 17:34:00,
2013-06-24 10:54:00,60.0,48.0,29.87,North,5,12.0,25.0,64,0.00,,,0.00,,2013-06-24 17:54:00,
2013-06-24 11:01:00,59.0,47.0,29.87,North,355,9.0,26.0,65,0.00,,,0.00,,2013-06-24 18:01:00,
2013-06-24 11:42:00,60.0,49.0,29.88,NW,325,10.0,30.0,68,0.00,,,0.00,,2013-06-24 18:42:00,
2013-06-24 11:53:00,60.0,49.0,29.88,NNE,15,11.0,22.0,68,0.00,,,0.00,,2013-06-24 18:53:00,
2013-06-24 12:01:00,60.0,50.0,29.88,North,360,9.0,26.0,69,0.00,,,0.00,,2013-06-24 19:01:00,
2013-06-24 12:11:00,60.0,50.0,29.88,North,351,13.0,28.0,69,0.00,,,0.00,,2013-06-24 19:11:00,
2013-06-24 12:33:00,61.0,50.0,29.89,North,9,11.0,26.0,68,0.00,,,0.00,,2013-06-24 19:33:00,
2013-06-24 12:42:00,61.0,50.0,29.88,NNW,340,8.0,23.0,68,0.00,,,0.00,,2013-06-24 19:42:00,
2013-06-24 12:53:00,61.0,50.0,29.89,North,360,15.0,26.0,68,0.00,,,0.00,,2013-06-24 19:53:00,
2013-06-24 13:02:00,62.0,51.0,29.89,North,355,9.0,20.0,66,0.00,,,0.00,,2013-06-24 20:02:00,
2013-06-24 13:11:00,63.0,51.0,29.89,NNE,19,10.0,17.0,65,0.00,,,0.00,,2013-06-24 20:11:00,
2013-06-24 13:42:00,63.0,51.0,29.89,North,360,8.0,22.0,66,0.00,,,0.00,,2013-06-24 20:42:00,
2013-06-24 14:11:00,63.0,52.0,29.89,North,360,14.0,26.0,67,0.00,,,0.00,,2013-06-24 21:11:00,
2013-06-24 14:43:00,63.0,51.0,29.89,North,350,15.0,24.0,66,0.00,,,0.00,,2013-06-24 21:43:00,
2013-06-24 14:54:00,63.0,51.0,29.89,North,350,15.0,24.0,66,0.00,,,0.00,,2013-06-24 21:54:00,
2013-06-24 15:02:00,63.0,52.0,29.88,NNE,13,15.0,29.0,67,0.00,,,0.00,,2013-06-24 22:02:00,
2013-06-24 15:12:00,64.0,52.0,29.88,NW,323,8.0,22.0,66,0.00,,,0.00,,2013-06-24 22:12:00,
2013-06-24 15:34:00,63.0,51.0,29.88,North,9,9.0,26.0,66,0.00,,,0.00,,2013-06-24 22:34:00,
2013-06-24 15:44:00,64.0,52.0,29.88,South,184,8.0,26.0,64,0.00,,,0.00,,2013-06-24 22:44:00,
2013-06-24 15:53:00,64.0,52.0,29.88,South,184,8.0,26.0,64,0.00,,,0.00,,2013-06-24 22:53:00,
2013-06-24 16:02:00,63.0,52.0,29.88,North,11,11.0,29.0,67,0.00,,,0.00,,2013-06-24 23:02:00,
2013-06-24 16:22:00,65.0,52.0,29.87,NNW,332,8.0,27.0,63,0.00,,,0.00,,2013-06-24 23:22:00,
2013-06-24 16:43:00,64.0,52.0,29.87,NNE,28,11.0,22.0,64,0.00,,,0.00,,2013-06-24 23:43:00,
2013-06-24 16:52:00,64.0,52.0,29.87,North,360,11.0,27.0,65,0.00,,,0.00,,2013-06-24 23:52:00,
2013-06-24 17:02:00,64.0,52.0,29.87,North,360,11.0,27.0,65,0.00,,,0.00,,2013-06-25 00:02:00,
2013-06-24 17:33:00,63.0,52.0,29.86,North,355,5.0,26.0,68,0.00,,,0.00,,2013-06-25 00:33:00,
2013-06-24 17:45:00,63.0,52.0,29.86,NNW,345,12.0,28.0,68,0.00,,,0.00,,2013-06-25 00:45:00,
2013-06-24 18:01:00,63.0,52.0,29.86,ENE,72,10.0,28.0,68,0.00,,,0.00,,2013-06-25 01:01:00,
2013-06-24 18:11:00,63.0,52.0,29.86,North,355,7.0,28.0,68,0.00,,,0.00,,2013-06-25 01:11:00,
2013-06-24 18:33:00,63.0,53.0,29.86,West,269,10.0,22.0,69,0.00,,,0.00,,2013-06-25 01:33:00,
2013-06-24 18:43:00,62.0,52.0,29.86,North,360,14.0,29.0,70,0.00,,,0.00,,2013-06-25 01:43:00,
2013-06-24 18:52:00,62.0,52.0,29.86,NNE,30,11.0,22.0,70,0.00,,,0.00,,2013-06-25 01:52:00,
2013-06-24 19:02:00,62.0,52.0,29.86,NNW,346,8.0,23.0,70,0.00,,,0.00,,2013-06-25 02:02:00,
2013-06-24 19:11:00,62.0,52.0,29.86,NNW,346,8.0,23.0,70,0.00,,,0.00,,2013-06-25 02:11:00,
2013-06-24 19:33:00,62.0,52.0,29.86,NE,39,11.0,23.0,71,0.00,,,0.00,,2013-06-25 02:33:00,
2013-06-24 19:43:00,62.0,52.0,29.86,North,11,9.0,24.0,71,0.00,,,0.00,,2013-06-25 02:43:00,
2013-06-24 19:53:00,61.0,52.0,29.87,NW,319,11.0,20.0,71,0.00,,,0.00,,2013-06-25 02:53:00,
2013-06-24 20:02:00,61.0,52.0,29.86,NNW,335,11.0,30.0,71,0.00,,,0.00,,2013-06-25 03:02:00,
2013-06-24 20:11:00,61.0,52.0,29.87,East,94,9.0,30.0,71,0.00,,,0.00,,2013-06-25 03:11:00,
2013-06-24 20:34:00,61.0,52.0,29.87,North,5,11.0,21.0,72,0.00,,,0.00,,2013-06-25 03:34:00,
2013-06-24 21:01:00,60.0,51.0,29.88,North,350,13.0,26.0,73,0.00,,,0.00,,2013-06-25 04:01:00,
2013-06-24 21:11:00,60.0,51.0,29.88,NNW,339,14.0,27.0,73,0.00,,,0.00,,2013-06-25 04:11:00,
2013-06-24 21:33:00,60.0,51.0,29.88,North,360,19.0,36.0,72,0.00,,,0.00,,2013-06-25 04:33:00,
2013-06-24 21:42:00,60.0,51.0,29.89,North,360,19.0,32.0,72,0.00,,,0.00,,2013-06-25 04:42:00,
2013-06-24 21:52:00,60.0,51.0,29.89,North,360,19.0,32.0,72,0.00,,,0.00,,2013-06-25 04:52:00,
2013-06-24 22:01:00,59.0,50.0,29.90,North,351,14.0,30.0,71,0.00,,,0.00,,2013-06-25 05:01:00,
2013-06-24 22:11:00,59.0,50.0,29.90,North,351,14.0,30.0,71,0.00,,,0.00,,2013-06-25 05:11:00,
2013-06-24 22:32:00,59.0,49.0,29.91,NNW,332,12.0,24.0,70,0.00,,,0.00,,2013-06-25 05:32:00,
2013-06-24 22:44:00,59.0,48.0,29.90,NNW,342,10.0,27.0,68,0.00,,,0.00,,2013-06-25 05:44:00,
2013-06-24 23:01:00,59.0,46.0,29.90,NNW,336,22.0,34.0,62,0.00,,,0.00,,2013-06-25 06:01:00,
2013-06-24 23:11:00,59.0,46.0,29.90,North,360,22.0,34.0,62,0.00,,,0.00,,2013-06-25 06:11:00,
2013-06-24 23:33:00,59.0,45.0,29.90,North,360,22.0,32.0,60,0.00,,,0.00,,2013-06-25 06:33:00,
2013-06-24 23:43:00,59.0,46.0,29.89,NNW,332,16.0,32.0,62,0.00,,,0.00,,2013-06-25 06:43:00,